Boise, ID (83701)

11:08 PM MDT on August 30, 2014 (GMT -0600)
Combes park | Change Station
CLOSE
Current Station
Personal Weather Station
Location: Boise, ID
Elevation: 2648 ft
Nearby Weather Stations

Elev 2648 ft 43.64 °N, 116.33 °W | Updated 20 seconds ago

Partly Cloudy
Partly Cloudy
58.6 °F
Feels Like 58.6 °F
N
2.2
Wind Variable Wind from South
Gusts 5.4 mph

Today
High -- | Low -- °F
--% Chance of Precip.
Yesterday
High -- | Low -- °F
Precip. -- in
7:06 AM 8:24 PM
Waxing Crescent, 27% visible
Pressure 29.87 in
Visibility 10.0 miles
Clouds Few 12000 ft
Dew Point 55 °F
Humidity 87%
Rainfall 0.01 in
Snow Depth 0 in
UV 0 out of 12
Pollen 7.90 out of 12
PM2.5 Moderate
Flu Activity Not available.
METAR KBOI 310453Z 26004KT 10SM FEW120 15/11 A2992 RMK AO2 WSHFT 0351 RAE16 SLP115 P0000 T01500106

More Conditions Fewer Conditions

Pressure 29.87 in
Visibility 10.0 miles
Clouds Few 12000 ft
Dew Point 55 °F
Humidity 87%
Rainfall 0.01 in
Snow Depth 0 in
UV 0 out of 12
Pollen 7.90 out of 12
PM2.5 Moderate
Flu Activity Not available.
METAR KBOI 310453Z 26004KT 10SM FEW120 15/11 A2992 RMK AO2 WSHFT 0351 RAE16 SLP115 P0000 T01500106

More Conditions Fewer Conditions

10-Day Weather Forecast

Almanac

Astronomy

Aug. 30, 2014 Rise Set
Actual Time 7:06 AM MDT 8:24 PM MDT
Civil Twilight 6:37 AM MDT 8:53 PM MDT
Nautical Twilight 6:01 AM MDT 9:29 PM MDT
Astronomical Twilight 5:23 AM MDT 10:06 PM MDT
Moon 12:08 PM MDT (8/30) 10:50 PM MDT (8/30)
Length of Visible Light 14h 16m
Length of Day
13h 17m
Tomorrow will be 2m 52s shorter.
Waxing Crescent, 27% of the Moon is Illuminated
Aug 31
Waxing Crescent
Sep 2
First Quarter
Sep 8
Full
Sep 15
Last Quarter
Sep 24
New

Yesterday's Extremes

State Highs State Lows

Community

WunderPhotos

Upload Photos

1,748,786 photos uploaded!

Nearby

Air Quality

  Air Quality AQ Index Pollutant
Yesterday Good
OZONE
Yesterday Good
PM10
Current Moderate
PM2.5
Saturday Good
OZONE
Sunday Good
OZONE
Monday Good
OZONE
Tuesday Good
OZONE
Wednesday Good
OZONE

Snow Depth

Station Depth Elevation
Bogus Basin 0 in 6340 ft
Trinity Mountain 1 in 7770 ft
Van Wyck 1 in 4920 ft
Jackson Peak 1 in 7070 ft
Camas Creek Divide 0 in 5710 ft

Earthquake Activity

City Distance Mag. Time & Date
No recent earthquake activity has been reported nearby.
Minimum magnitude displayed is 2.5.

Coastal Water Temperatures

Place Temperature
No Stations Reporting

Nearby Weather Stations